Prins Christian Sund

KL  EN  DA
ASIAQ
Weather Now GREENLAND SURVEY
Updated [WGT/WGST] Temperature [°C] Wind [m/s] Air pressure [hPa] Relative humidity [%] Precipitation [mm]
Present Wind chill Speed Max
21.01 19:00-5,4-11,75,1 ⇗6,798650n/a
21.01 18:00-4,4-9,84,1 ⇗5,798646n/a
21.01 17:00-4,6-9,63,6 ⇗4,698644n/a
21.01 16:00-4,7-9,73,6 ⇗5,798644n/a
21.01 15:00-4,9-9,53,1 ⇗4,698745n/a
21.01 14:00-4,0-10,45,7 ⇗7,298639n/a
21.01 13:00-3,7-10,05,7 ⇗8,898639n/a
21.01 12:00-3,4-9,65,7 ⇗7,798638n/a
21.01 11:00-3,6-9,85,7 ⇗8,298739n/a
21.01 10:00-3,6-9,14,6 ⇗6,798739n/a
21.01 09:00-3,8-10,15,7 ⇗7,298741n/a
21.01 08:00-3,8-10,15,7 ⇗7,798745n/a
21.01 07:00-3,6-10,16,2 ⇗8,898845n/a
21.01 06:00-3,1-10,48,2 ⇗12,498842n/a
21.01 05:00-3,0-10,38,2 ⇗12,498742n/a
21.01 04:00-3,5-11,69,8 ⇗15,498745n/a
21.01 03:00-3,2-11,29,8 ⇗13,998742n/a
21.01 02:00-3,4-11,610,3 ⇒18,598747n/a
21.01 01:00-3,2-12,313,4 ⇗23,798649n/a
21.01 00:00-3,1-11,711,8 ⇗18,598551n/a
20.01 23:00-3,1-12,313,9 ⇗20,698453n/a
20.01 22:00-2,6-10,29,3 ⇗16,598450n/a
20.01 21:00-2,2-9,99,8 ⇗16,098352n/a
20.01 20:00-1,9-10,011,3 ⇗16,598253n/a
20.01 19:00-1,7-10,313,4 ⇗19,698152n/a
Position: (60.05527777,-43.16527777)

[Back]